sensor_id;sensor_type;location;lat;lon;timestamp;temperature;humidity
75799;DHT22;70933;44.692;37.776;2023-07-09T00:00:49;29.77;28.48
75799;DHT22;70933;44.692;37.776;2023-07-09T00:01:52;29.77;28.45
75799;DHT22;70933;44.692;37.776;2023-07-09T00:02:53;29.77;28.53
75799;DHT22;70933;44.692;37.776;2023-07-09T00:03:55;29.77;28.55
75799;DHT22;70933;44.692;37.776;2023-07-09T00:04:57;29.76;28.55
75799;DHT22;70933;44.692;37.776;2023-07-09T00:05:59;29.76;28.55
75799;DHT22;70933;44.692;37.776;2023-07-09T00:07:03;29.77;28.78
75799;DHT22;70933;44.692;37.776;2023-07-09T00:08:05;29.75;28.71
75799;DHT22;70933;44.692;37.776;2023-07-09T00:09:16;29.76;28.74
75799;DHT22;70933;44.692;37.776;2023-07-09T00:10:20;29.76;28.71
75799;DHT22;70933;44.692;37.776;2023-07-09T00:11:21;29.75;28.69
75799;DHT22;70933;44.692;37.776;2023-07-09T00:12:25;29.76;28.74
75799;DHT22;70933;44.692;37.776;2023-07-09T00:13:27;29.75;28.70
75799;DHT22;70933;44.692;37.776;2023-07-09T00:14:29;29.76;28.68
75799;DHT22;70933;44.692;37.776;2023-07-09T00:15:31;29.76;28.62
75799;DHT22;70933;44.692;37.776;2023-07-09T00:16:32;29.77;28.67
75799;DHT22;70933;44.692;37.776;2023-07-09T00:17:34;29.75;28.57
75799;DHT22;70933;44.692;37.776;2023-07-09T00:18:36;29.76;28.60
75799;DHT22;70933;44.692;37.776;2023-07-09T00:19:38;29.76;28.34
75799;DHT22;70933;44.692;37.776;2023-07-09T00:20:40;29.75;28.38
75799;DHT22;70933;44.692;37.776;2023-07-09T00:21:47;29.76;28.34
75799;DHT22;70933;44.692;37.776;2023-07-09T00:22:49;29.75;28.36
75799;DHT22;70933;44.692;37.776;2023-07-09T00:23:53;29.77;28.34
75799;DHT22;70933;44.692;37.776;2023-07-09T00:24:55;29.76;28.33
75799;DHT22;70933;44.692;37.776;2023-07-09T00:25:58;29.75;28.34
75799;DHT22;70933;44.692;37.776;2023-07-09T00:27:00;29.75;28.36
75799;DHT22;70933;44.692;37.776;2023-07-09T00:28:02;29.77;28.34
75799;DHT22;70933;44.692;37.776;2023-07-09T00:29:04;29.77;28.49
75799;DHT22;70933;44.692;37.776;2023-07-09T00:30:13;29.76;28.56
75799;DHT22;70933;44.692;37.776;2023-07-09T00:31:17;29.76;28.62
75799;DHT22;70933;44.692;37.776;2023-07-09T00:32:19;29.77;28.63
75799;DHT22;70933;44.692;37.776;2023-07-09T00:33:26;29.77;28.73
75799;DHT22;70933;44.692;37.776;2023-07-09T00:34:33;29.76;28.63
75799;DHT22;70933;44.692;37.776;2023-07-09T00:35:36;29.77;28.74
75799;DHT22;70933;44.692;37.776;2023-07-09T00:36:41;29.77;28.71
75799;DHT22;70933;44.692;37.776;2023-07-09T00:37:47;29.77;28.58
75799;DHT22;70933;44.692;37.776;2023-07-09T00:38:49;29.76;28.57
75799;DHT22;70933;44.692;37.776;2023-07-09T00:39:52;29.76;28.37
75799;DHT22;70933;44.692;37.776;2023-07-09T00:41:03;29.76;28.32
75799;DHT22;70933;44.692;37.776;2023-07-09T00:43:19;29.76;28.24
75799;DHT22;70933;44.692;37.776;2023-07-09T00:45:27;29.76;28.22
75799;DHT22;70933;44.692;37.776;2023-07-09T00:47:46;29.75;28.22
75799;DHT22;70933;44.692;37.776;2023-07-09T00:48:57;29.76;28.31
75799;DHT22;70933;44.692;37.776;2023-07-09T00:50:08;29.75;28.37
75799;DHT22;70933;44.692;37.776;2023-07-09T00:51:14;29.75;28.38
75799;DHT22;70933;44.692;37.776;2023-07-09T00:53:29;29.75;28.33
75799;DHT22;70933;44.692;37.776;2023-07-09T00:54:36;29.75;28.32
75799;DHT22;70933;44.692;37.776;2023-07-09T00:55:42;29.74;28.32
75799;DHT22;70933;44.692;37.776;2023-07-09T00:56:49;29.75;28.46
75799;DHT22;70933;44.692;37.776;2023-07-09T00:57:58;29.74;28.55
75799;DHT22;70933;44.692;37.776;2023-07-09T00:59:05;29.74;28.60
75799;DHT22;70933;44.692;37.776;2023-07-09T01:00:13;29.75;28.64
75799;DHT22;70933;44.692;37.776;2023-07-09T01:01:17;29.75;28.63
75799;DHT22;70933;44.692;37.776;2023-07-09T01:02:21;29.75;28.61
75799;DHT22;70933;44.692;37.776;2023-07-09T01:03:32;29.73;28.52
75799;DHT22;70933;44.692;37.776;2023-07-09T01:04:36;29.73;28.65
75799;DHT22;70933;44.692;37.776;2023-07-09T01:05:40;29.73;28.63
75799;DHT22;70933;44.692;37.776;2023-07-09T01:06:51;29.74;28.80
75799;DHT22;70933;44.692;37.776;2023-07-09T01:07:53;29.73;28.76
75799;DHT22;70933;44.692;37.776;2023-07-09T01:08:55;29.74;28.86
75799;DHT22;70933;44.692;37.776;2023-07-09T01:09:57;29.74;28.80
75799;DHT22;70933;44.692;37.776;2023-07-09T01:11:00;29.72;28.90
75799;DHT22;70933;44.692;37.776;2023-07-09T01:12:05;29.74;28.88
75799;DHT22;70933;44.692;37.776;2023-07-09T01:13:08;29.74;28.77
75799;DHT22;70933;44.692;37.776;2023-07-09T01:14:13;29.74;28.86
75799;DHT22;70933;44.692;37.776;2023-07-09T01:15:19;29.73;28.91
75799;DHT22;70933;44.692;37.776;2023-07-09T01:16:30;29.73;29.00
75799;DHT22;70933;44.692;37.776;2023-07-09T01:17:33;29.72;29.06
75799;DHT22;70933;44.692;37.776;2023-07-09T01:18:35;29.73;29.09
75799;DHT22;70933;44.692;37.776;2023-07-09T01:19:40;29.74;29.07
75799;DHT22;70933;44.692;37.776;2023-07-09T01:20:45;29.75;28.95
75799;DHT22;70933;44.692;37.776;2023-07-09T01:21:48;29.74;29.00
75799;DHT22;70933;44.692;37.776;2023-07-09T01:22:51;29.74;28.93
75799;DHT22;70933;44.692;37.776;2023-07-09T01:23:56;29.73;28.88
75799;DHT22;70933;44.692;37.776;2023-07-09T01:25:02;29.73;28.86
75799;DHT22;70933;44.692;37.776;2023-07-09T01:26:07;29.73;28.71
75799;DHT22;70933;44.692;37.776;2023-07-09T01:27:11;29.74;28.67
75799;DHT22;70933;44.692;37.776;2023-07-09T01:28:13;29.73;28.67
75799;DHT22;70933;44.692;37.776;2023-07-09T01:29:14;29.73;28.65
75799;DHT22;70933;44.692;37.776;2023-07-09T01:30:26;29.73;28.65
75799;DHT22;70933;44.692;37.776;2023-07-09T01:31:28;29.73;28.64
75799;DHT22;70933;44.692;37.776;2023-07-09T01:32:30;29.73;28.48
75799;DHT22;70933;44.692;37.776;2023-07-09T01:33:32;29.72;28.47
75799;DHT22;70933;44.692;37.776;2023-07-09T01:34:34;29.72;28.34
75799;DHT22;70933;44.692;37.776;2023-07-09T01:35:38;29.73;28.42
75799;DHT22;70933;44.692;37.776;2023-07-09T01:36:43;29.73;28.29
75799;DHT22;70933;44.692;37.776;2023-07-09T01:37:46;29.73;28.36
75799;DHT22;70933;44.692;37.776;2023-07-09T01:38:47;29.71;28.32
75799;DHT22;70933;44.692;37.776;2023-07-09T01:39:52;29.72;28.32
75799;DHT22;70933;44.692;37.776;2023-07-09T01:40:55;29.73;28.40
75799;DHT22;70933;44.692;37.776;2023-07-09T01:41:57;29.72;28.36
75799;DHT22;70933;44.692;37.776;2023-07-09T01:43:00;29.72;28.10
75799;DHT22;70933;44.692;37.776;2023-07-09T01:44:02;29.71;28.00
75799;DHT22;70933;44.692;37.776;2023-07-09T01:45:08;29.71;28.00
75799;DHT22;70933;44.692;37.776;2023-07-09T01:46:12;29.71;28.00
75799;DHT22;70933;44.692;37.776;2023-07-09T01:47:16;29.71;27.87
75799;DHT22;70933;44.692;37.776;2023-07-09T01:48:19;29.70;27.90
75799;DHT22;70933;44.692;37.776;2023-07-09T01:49:21;29.70;27.81
75799;DHT22;70933;44.692;37.776;2023-07-09T01:50:23;29.68;27.78
75799;DHT22;70933;44.692;37.776;2023-07-09T01:51:25;29.68;27.84
75799;DHT22;70933;44.692;37.776;2023-07-09T01:52:31;29.68;27.92
75799;DHT22;70933;44.692;37.776;2023-07-09T01:53:33;29.68;27.87
75799;DHT22;70933;44.692;37.776;2023-07-09T01:54:37;29.68;27.94
75799;DHT22;70933;44.692;37.776;2023-07-09T01:55:42;29.70;28.07
75799;DHT22;70933;44.692;37.776;2023-07-09T01:56:44;29.68;28.10
75799;DHT22;70933;44.692;37.776;2023-07-09T01:57:46;29.70;28.17
75799;DHT22;70933;44.692;37.776;2023-07-09T01:58:48;29.67;28.04
75799;DHT22;70933;44.692;37.776;2023-07-09T01:59:51;29.66;28.08
75799;DHT22;70933;44.692;37.776;2023-07-09T02:00:54;29.67;28.04
75799;DHT22;70933;44.692;37.776;2023-07-09T02:01:56;29.68;28.01
75799;DHT22;70933;44.692;37.776;2023-07-09T02:02:59;29.67;28.04
75799;DHT22;70933;44.692;37.776;2023-07-09T02:04:01;29.67;27.73
75799;DHT22;70933;44.692;37.776;2023-07-09T02:05:06;29.66;27.71
75799;DHT22;70933;44.692;37.776;2023-07-09T02:06:08;29.66;27.52
75799;DHT22;70933;44.692;37.776;2023-07-09T02:07:12;29.65;27.30
75799;DHT22;70933;44.692;37.776;2023-07-09T02:08:14;29.65;27.24
75799;DHT22;70933;44.692;37.776;2023-07-09T02:09:16;29.65;27.36
75799;DHT22;70933;44.692;37.776;2023-07-09T02:10:18;29.64;27.23
75799;DHT22;70933;44.692;37.776;2023-07-09T02:11:22;29.64;27.18
75799;DHT22;70933;44.692;37.776;2023-07-09T02:12:24;29.63;27.10
75799;DHT22;70933;44.692;37.776;2023-07-09T02:13:26;29.62;27.07
75799;DHT22;70933;44.692;37.776;2023-07-09T02:14:28;29.62;27.12
75799;DHT22;70933;44.692;37.776;2023-07-09T02:15:30;29.61;27.23
75799;DHT22;70933;44.692;37.776;2023-07-09T02:16:31;29.60;27.07
75799;DHT22;70933;44.692;37.776;2023-07-09T02:17:35;29.59;27.20
75799;DHT22;70933;44.692;37.776;2023-07-09T02:18:36;29.59;27.33
75799;DHT22;70933;44.692;37.776;2023-07-09T02:19:38;29.60;27.38
75799;DHT22;70933;44.692;37.776;2023-07-09T02:20:40;29.59;27.25
75799;DHT22;70933;44.692;37.776;2023-07-09T02:21:42;29.60;27.35
75799;DHT22;70933;44.692;37.776;2023-07-09T02:22:44;29.58;27.40
75799;DHT22;70933;44.692;37.776;2023-07-09T02:23:46;29.59;27.35
75799;DHT22;70933;44.692;37.776;2023-07-09T02:24:48;29.60;27.25
75799;DHT22;70933;44.692;37.776;2023-07-09T02:25:50;29.59;27.31
75799;DHT22;70933;44.692;37.776;2023-07-09T02:26:55;29.59;27.28
75799;DHT22;70933;44.692;37.776;2023-07-09T02:27:57;29.59;27.29
75799;DHT22;70933;44.692;37.776;2023-07-09T02:28:59;29.60;27.42
75799;DHT22;70933;44.692;37.776;2023-07-09T02:30:05;29.59;27.47
75799;DHT22;70933;44.692;37.776;2023-07-09T02:31:08;29.60;27.55
75799;DHT22;70933;44.692;37.776;2023-07-09T02:32:22;29.61;27.54
75799;DHT22;70933;44.692;37.776;2023-07-09T02:33:24;29.61;27.55
75799;DHT22;70933;44.692;37.776;2023-07-09T02:34:27;29.61;27.62
75799;DHT22;70933;44.692;37.776;2023-07-09T02:35:29;29.60;27.71
75799;DHT22;70933;44.692;37.776;2023-07-09T02:36:30;29.60;27.77
75799;DHT22;70933;44.692;37.776;2023-07-09T02:37:32;29.61;27.84
75799;DHT22;70933;44.692;37.776;2023-07-09T02:38:34;29.60;27.89
75799;DHT22;70933;44.692;37.776;2023-07-09T02:39:36;29.61;27.94
75799;DHT22;70933;44.692;37.776;2023-07-09T02:40:39;29.61;28.03
75799;DHT22;70933;44.692;37.776;2023-07-09T02:41:41;29.62;27.97
75799;DHT22;70933;44.692;37.776;2023-07-09T02:42:43;29.62;28.00
75799;DHT22;70933;44.692;37.776;2023-07-09T02:43:45;29.61;28.11
75799;DHT22;70933;44.692;37.776;2023-07-09T02:44:47;29.61;28.06
75799;DHT22;70933;44.692;37.776;2023-07-09T02:45:49;29.61;28.06
75799;DHT22;70933;44.692;37.776;2023-07-09T02:46:50;29.61;28.01
75799;DHT22;70933;44.692;37.776;2023-07-09T02:47:52;29.60;28.07
75799;DHT22;70933;44.692;37.776;2023-07-09T02:48:55;29.60;28.11
75799;DHT22;70933;44.692;37.776;2023-07-09T02:49:57;29.60;28.21
75799;DHT22;70933;44.692;37.776;2023-07-09T02:50:58;29.60;28.17
75799;DHT22;70933;44.692;37.776;2023-07-09T02:52:00;29.61;28.30
75799;DHT22;70933;44.692;37.776;2023-07-09T02:53:02;29.62;28.17
75799;DHT22;70933;44.692;37.776;2023-07-09T02:54:05;29.61;28.28
75799;DHT22;70933;44.692;37.776;2023-07-09T02:55:07;29.60;28.25
75799;DHT22;70933;44.692;37.776;2023-07-09T02:56:09;29.61;28.28
75799;DHT22;70933;44.692;37.776;2023-07-09T02:57:11;29.61;28.27
75799;DHT22;70933;44.692;37.776;2023-07-09T02:58:13;29.61;28.39
75799;DHT22;70933;44.692;37.776;2023-07-09T02:59:15;29.64;28.44
75799;DHT22;70933;44.692;37.776;2023-07-09T03:00:17;29.62;28.48
75799;DHT22;70933;44.692;37.776;2023-07-09T03:01:19;29.63;28.48
75799;DHT22;70933;44.692;37.776;2023-07-09T03:02:27;29.64;28.48
75799;DHT22;70933;44.692;37.776;2023-07-09T03:03:29;29.64;28.29
75799;DHT22;70933;44.692;37.776;2023-07-09T03:04:30;29.64;28.53
75799;DHT22;70933;44.692;37.776;2023-07-09T03:05:33;29.63;28.53
75799;DHT22;70933;44.692;37.776;2023-07-09T03:06:36;29.64;28.59
75799;DHT22;70933;44.692;37.776;2023-07-09T03:07:38;29.64;28.64
75799;DHT22;70933;44.692;37.776;2023-07-09T03:08:39;29.64;28.60
75799;DHT22;70933;44.692;37.776;2023-07-09T03:09:41;29.63;28.59
75799;DHT22;70933;44.692;37.776;2023-07-09T03:10:43;29.63;28.55
75799;DHT22;70933;44.692;37.776;2023-07-09T03:11:45;29.63;28.63
75799;DHT22;70933;44.692;37.776;2023-07-09T03:12:47;29.63;28.64
75799;DHT22;70933;44.692;37.776;2023-07-09T03:13:49;29.64;28.72
75799;DHT22;70933;44.692;37.776;2023-07-09T03:14:50;29.64;28.58
75799;DHT22;70933;44.692;37.776;2023-07-09T03:15:56;29.65;28.65
75799;DHT22;70933;44.692;37.776;2023-07-09T03:16:58;29.64;28.73
75799;DHT22;70933;44.692;37.776;2023-07-09T03:18:00;29.65;28.71
75799;DHT22;70933;44.692;37.776;2023-07-09T03:19:02;29.64;28.62
75799;DHT22;70933;44.692;37.776;2023-07-09T03:20:06;29.65;28.61
75799;DHT22;70933;44.692;37.776;2023-07-09T03:21:09;29.64;28.58
75799;DHT22;70933;44.692;37.776;2023-07-09T03:22:11;29.65;28.58
75799;DHT22;70933;44.692;37.776;2023-07-09T03:23:12;29.65;28.56
75799;DHT22;70933;44.692;37.776;2023-07-09T03:24:14;29.63;28.59
75799;DHT22;70933;44.692;37.776;2023-07-09T03:25:20;29.64;28.55
75799;DHT22;70933;44.692;37.776;2023-07-09T03:26:22;29.63;28.55
75799;DHT22;70933;44.692;37.776;2023-07-09T03:27:24;29.65;28.58
75799;DHT22;70933;44.692;37.776;2023-07-09T03:28:26;29.64;28.65
75799;DHT22;70933;44.692;37.776;2023-07-09T03:29:28;29.64;28.52
75799;DHT22;70933;44.692;37.776;2023-07-09T03:30:30;29.64;28.54
75799;DHT22;70933;44.692;37.776;2023-07-09T03:31:32;29.64;28.52
75799;DHT22;70933;44.692;37.776;2023-07-09T03:32:37;29.64;28.42
75799;DHT22;70933;44.692;37.776;2023-07-09T03:33:39;29.64;28.43
75799;DHT22;70933;44.692;37.776;2023-07-09T03:34:41;29.64;28.31
75799;DHT22;70933;44.692;37.776;2023-07-09T03:35:43;29.64;28.39
75799;DHT22;70933;44.692;37.776;2023-07-09T03:36:45;29.64;28.29
75799;DHT22;70933;44.692;37.776;2023-07-09T03:37:47;29.63;28.35
75799;DHT22;70933;44.692;37.776;2023-07-09T03:38:49;29.63;28.26
75799;DHT22;70933;44.692;37.776;2023-07-09T03:39:50;29.64;28.22
75799;DHT22;70933;44.692;37.776;2023-07-09T03:40:53;29.63;28.20
75799;DHT22;70933;44.692;37.776;2023-07-09T03:41:55;29.63;28.21
75799;DHT22;70933;44.692;37.776;2023-07-09T03:42:57;29.64;28.23
75799;DHT22;70933;44.692;37.776;2023-07-09T03:43:59;29.63;28.13
75799;DHT22;70933;44.692;37.776;2023-07-09T03:45:01;29.63;28.14
75799;DHT22;70933;44.692;37.776;2023-07-09T03:46:03;29.64;28.10
75799;DHT22;70933;44.692;37.776;2023-07-09T03:47:05;29.63;28.10
75799;DHT22;70933;44.692;37.776;2023-07-09T03:48:07;29.64;28.12
75799;DHT22;70933;44.692;37.776;2023-07-09T03:49:09;29.61;28.07
75799;DHT22;70933;44.692;37.776;2023-07-09T03:50:11;29.63;28.13
75799;DHT22;70933;44.692;37.776;2023-07-09T03:51:13;29.63;28.17
75799;DHT22;70933;44.692;37.776;2023-07-09T03:52:15;29.62;28.06
75799;DHT22;70933;44.692;37.776;2023-07-09T03:53:17;29.62;28.21
75799;DHT22;70933;44.692;37.776;2023-07-09T03:54:19;29.62;28.13
75799;DHT22;70933;44.692;37.776;2023-07-09T03:55:21;29.63;28.20
75799;DHT22;70933;44.692;37.776;2023-07-09T03:56:23;29.63;28.20
75799;DHT22;70933;44.692;37.776;2023-07-09T03:57:25;29.63;28.16
75799;DHT22;70933;44.692;37.776;2023-07-09T03:58:27;29.63;28.16
75799;DHT22;70933;44.692;37.776;2023-07-09T03:59:29;29.63;28.00
75799;DHT22;70933;44.692;37.776;2023-07-09T04:00:32;29.63;28.08
75799;DHT22;70933;44.692;37.776;2023-07-09T04:01:34;29.62;28.07
75799;DHT22;70933;44.692;37.776;2023-07-09T04:02:38;29.61;28.19
75799;DHT22;70933;44.692;37.776;2023-07-09T04:03:40;29.62;28.25
75799;DHT22;70933;44.692;37.776;2023-07-09T04:04:42;29.62;28.19
75799;DHT22;70933;44.692;37.776;2023-07-09T04:05:43;29.62;28.25
75799;DHT22;70933;44.692;37.776;2023-07-09T04:06:46;29.62;28.06
75799;DHT22;70933;44.692;37.776;2023-07-09T04:07:48;29.63;28.03
75799;DHT22;70933;44.692;37.776;2023-07-09T04:08:50;29.63;28.01
75799;DHT22;70933;44.692;37.776;2023-07-09T04:09:52;29.63;28.07
75799;DHT22;70933;44.692;37.776;2023-07-09T04:10:54;29.62;28.06
75799;DHT22;70933;44.692;37.776;2023-07-09T04:11:58;29.62;27.98
75799;DHT22;70933;44.692;37.776;2023-07-09T04:13:02;29.63;28.01
75799;DHT22;70933;44.692;37.776;2023-07-09T04:14:04;29.62;27.97
75799;DHT22;70933;44.692;37.776;2023-07-09T04:15:09;29.62;28.06
75799;DHT22;70933;44.692;37.776;2023-07-09T04:16:11;29.63;27.98
75799;DHT22;70933;44.692;37.776;2023-07-09T04:17:13;29.62;27.97
75799;DHT22;70933;44.692;37.776;2023-07-09T04:18:14;29.62;27.96
75799;DHT22;70933;44.692;37.776;2023-07-09T04:19:16;29.62;27.95
75799;DHT22;70933;44.692;37.776;2023-07-09T04:20:18;29.62;28.00
75799;DHT22;70933;44.692;37.776;2023-07-09T04:21:20;29.61;28.03
75799;DHT22;70933;44.692;37.776;2023-07-09T04:22:22;29.62;28.02
75799;DHT22;70933;44.692;37.776;2023-07-09T04:23:24;29.62;28.18
75799;DHT22;70933;44.692;37.776;2023-07-09T04:24:25;29.62;28.19
75799;DHT22;70933;44.692;37.776;2023-07-09T04:25:28;29.62;28.21
75799;DHT22;70933;44.692;37.776;2023-07-09T04:26:30;29.61;28.29
75799;DHT22;70933;44.692;37.776;2023-07-09T04:27:32;29.61;28.32
75799;DHT22;70933;44.692;37.776;2023-07-09T04:28:35;29.61;28.26
75799;DHT22;70933;44.692;37.776;2023-07-09T04:29:37;29.62;28.30
75799;DHT22;70933;44.692;37.776;2023-07-09T04:30:53;29.62;28.27
75799;DHT22;70933;44.692;37.776;2023-07-09T04:31:55;29.62;28.36
75799;DHT22;70933;44.692;37.776;2023-07-09T04:32:57;29.62;28.39
75799;DHT22;70933;44.692;37.776;2023-07-09T04:33:59;29.62;28.42
75799;DHT22;70933;44.692;37.776;2023-07-09T04:35:01;29.63;28.58
75799;DHT22;70933;44.692;37.776;2023-07-09T04:36:03;29.62;28.48
75799;DHT22;70933;44.692;37.776;2023-07-09T04:37:10;29.62;28.76
75799;DHT22;70933;44.692;37.776;2023-07-09T04:38:14;29.62;28.74
75799;DHT22;70933;44.692;37.776;2023-07-09T04:39:17;29.63;28.87
75799;DHT22;70933;44.692;37.776;2023-07-09T04:40:20;29.63;28.75
75799;DHT22;70933;44.692;37.776;2023-07-09T04:41:21;29.63;28.79
75799;DHT22;70933;44.692;37.776;2023-07-09T04:42:23;29.63;28.83
75799;DHT22;70933;44.692;37.776;2023-07-09T04:43:25;29.63;28.92
75799;DHT22;70933;44.692;37.776;2023-07-09T04:44:28;29.63;28.97
75799;DHT22;70933;44.692;37.776;2023-07-09T04:45:29;29.63;28.92
75799;DHT22;70933;44.692;37.776;2023-07-09T04:46:31;29.63;28.94
75799;DHT22;70933;44.692;37.776;2023-07-09T04:47:33;29.63;29.03
75799;DHT22;70933;44.692;37.776;2023-07-09T04:48:35;29.63;28.98
75799;DHT22;70933;44.692;37.776;2023-07-09T04:49:37;29.64;29.05
75799;DHT22;70933;44.692;37.776;2023-07-09T04:50:39;29.64;28.97
75799;DHT22;70933;44.692;37.776;2023-07-09T04:51:42;29.64;28.84
75799;DHT22;70933;44.692;37.776;2023-07-09T04:52:44;29.63;29.03
75799;DHT22;70933;44.692;37.776;2023-07-09T04:53:45;29.64;29.02
75799;DHT22;70933;44.692;37.776;2023-07-09T04:54:47;29.63;29.07
75799;DHT22;70933;44.692;37.776;2023-07-09T04:55:51;29.64;29.18
75799;DHT22;70933;44.692;37.776;2023-07-09T04:56:53;29.64;29.28
75799;DHT22;70933;44.692;37.776;2023-07-09T04:57:55;29.65;29.14
75799;DHT22;70933;44.692;37.776;2023-07-09T04:58:57;29.64;29.28
75799;DHT22;70933;44.692;37.776;2023-07-09T04:59:59;29.64;29.29
75799;DHT22;70933;44.692;37.776;2023-07-09T05:01:01;29.63;29.16
75799;DHT22;70933;44.692;37.776;2023-07-09T05:02:03;29.64;29.36
75799;DHT22;70933;44.692;37.776;2023-07-09T05:03:05;29.64;29.39
75799;DHT22;70933;44.692;37.776;2023-07-09T05:04:07;29.65;29.35
75799;DHT22;70933;44.692;37.776;2023-07-09T05:05:09;29.63;29.35
75799;DHT22;70933;44.692;37.776;2023-07-09T05:06:13;29.64;29.41
75799;DHT22;70933;44.692;37.776;2023-07-09T05:07:14;29.65;29.51
75799;DHT22;70933;44.692;37.776;2023-07-09T05:08:17;29.65;29.76
75799;DHT22;70933;44.692;37.776;2023-07-09T05:09:19;29.65;29.87
75799;DHT22;70933;44.692;37.776;2023-07-09T05:10:21;29.65;30.21
75799;DHT22;70933;44.692;37.776;2023-07-09T05:11:23;29.65;30.09
75799;DHT22;70933;44.692;37.776;2023-07-09T05:12:27;29.65;30.03
75799;DHT22;70933;44.692;37.776;2023-07-09T05:13:29;29.65;29.91
75799;DHT22;70933;44.692;37.776;2023-07-09T05:14:31;29.65;29.95
75799;DHT22;70933;44.692;37.776;2023-07-09T05:15:33;29.65;30.06
75799;DHT22;70933;44.692;37.776;2023-07-09T05:16:34;29.66;29.96
75799;DHT22;70933;44.692;37.776;2023-07-09T05:17:36;29.65;29.96
75799;DHT22;70933;44.692;37.776;2023-07-09T05:18:38;29.64;30.00
75799;DHT22;70933;44.692;37.776;2023-07-09T05:19:40;29.64;30.00
75799;DHT22;70933;44.692;37.776;2023-07-09T05:20:42;29.65;29.97
75799;DHT22;70933;44.692;37.776;2023-07-09T05:21:44;29.65;29.90
75799;DHT22;70933;44.692;37.776;2023-07-09T05:22:45;29.64;29.83
75799;DHT22;70933;44.692;37.776;2023-07-09T05:23:47;29.66;29.84
75799;DHT22;70933;44.692;37.776;2023-07-09T05:24:49;29.65;29.86
75799;DHT22;70933;44.692;37.776;2023-07-09T05:26:01;29.66;29.93
75799;DHT22;70933;44.692;37.776;2023-07-09T05:27:04;29.65;29.87
75799;DHT22;70933;44.692;37.776;2023-07-09T05:28:05;29.66;29.87
75799;DHT22;70933;44.692;37.776;2023-07-09T05:29:07;29.64;29.90
75799;DHT22;70933;44.692;37.776;2023-07-09T05:30:10;29.66;29.95
75799;DHT22;70933;44.692;37.776;2023-07-09T05:31:12;29.66;30.01
75799;DHT22;70933;44.692;37.776;2023-07-09T05:32:14;29.65;30.00
75799;DHT22;70933;44.692;37.776;2023-07-09T05:33:17;29.65;29.93
75799;DHT22;70933;44.692;37.776;2023-07-09T05:34:19;29.66;29.94
75799;DHT22;70933;44.692;37.776;2023-07-09T05:35:22;29.66;30.00
75799;DHT22;70933;44.692;37.776;2023-07-09T05:36:26;29.66;29.99
75799;DHT22;70933;44.692;37.776;2023-07-09T05:37:28;29.67;30.03
75799;DHT22;70933;44.692;37.776;2023-07-09T05:38:31;29.67;29.70
75799;DHT22;70933;44.692;37.776;2023-07-09T05:39:32;29.66;29.67
75799;DHT22;70933;44.692;37.776;2023-07-09T05:40:34;29.66;29.80
75799;DHT22;70933;44.692;37.776;2023-07-09T05:41:36;29.66;29.78
75799;DHT22;70933;44.692;37.776;2023-07-09T05:42:38;29.66;29.84
75799;DHT22;70933;44.692;37.776;2023-07-09T05:43:40;29.66;29.83
75799;DHT22;70933;44.692;37.776;2023-07-09T05:44:41;29.67;29.79
75799;DHT22;70933;44.692;37.776;2023-07-09T05:45:43;29.65;29.79
75799;DHT22;70933;44.692;37.776;2023-07-09T05:46:45;29.66;29.74
75799;DHT22;70933;44.692;37.776;2023-07-09T05:47:47;29.66;29.74
75799;DHT22;70933;44.692;37.776;2023-07-09T05:48:48;29.66;29.87
75799;DHT22;70933;44.692;37.776;2023-07-09T05:49:51;29.66;29.87
75799;DHT22;70933;44.692;37.776;2023-07-09T05:50:53;29.66;29.92
75799;DHT22;70933;44.692;37.776;2023-07-09T05:51:56;29.66;29.94
75799;DHT22;70933;44.692;37.776;2023-07-09T05:52:58;29.66;29.93
75799;DHT22;70933;44.692;37.776;2023-07-09T05:54:00;29.66;29.94
75799;DHT22;70933;44.692;37.776;2023-07-09T05:55:02;29.66;29.82
75799;DHT22;70933;44.692;37.776;2023-07-09T05:56:06;29.67;29.89
75799;DHT22;70933;44.692;37.776;2023-07-09T05:57:08;29.66;29.74
75799;DHT22;70933;44.692;37.776;2023-07-09T05:58:09;29.67;29.92
75799;DHT22;70933;44.692;37.776;2023-07-09T05:59:11;29.68;29.74
75799;DHT22;70933;44.692;37.776;2023-07-09T06:00:13;29.66;29.77
75799;DHT22;70933;44.692;37.776;2023-07-09T06:01:15;29.67;29.69
75799;DHT22;70933;44.692;37.776;2023-07-09T06:02:20;29.67;29.68
75799;DHT22;70933;44.692;37.776;2023-07-09T06:03:24;29.67;29.45
75799;DHT22;70933;44.692;37.776;2023-07-09T06:04:27;29.66;29.46
75799;DHT22;70933;44.692;37.776;2023-07-09T06:05:28;29.67;29.33
75799;DHT22;70933;44.692;37.776;2023-07-09T06:06:31;29.67;29.29
75799;DHT22;70933;44.692;37.776;2023-07-09T06:07:32;29.67;29.15
75799;DHT22;70933;44.692;37.776;2023-07-09T06:08:34;29.67;29.12
75799;DHT22;70933;44.692;37.776;2023-07-09T06:09:36;29.67;29.22
75799;DHT22;70933;44.692;37.776;2023-07-09T06:10:38;29.67;29.31
75799;DHT22;70933;44.692;37.776;2023-07-09T06:11:42;29.66;29.25
75799;DHT22;70933;44.692;37.776;2023-07-09T06:12:45;29.67;29.19
75799;DHT22;70933;44.692;37.776;2023-07-09T06:13:47;29.67;29.23
75799;DHT22;70933;44.692;37.776;2023-07-09T06:14:49;29.66;29.32
75799;DHT22;70933;44.692;37.776;2023-07-09T06:15:53;29.65;29.26
75799;DHT22;70933;44.692;37.776;2023-07-09T06:16:55;29.67;29.42
75799;DHT22;70933;44.692;37.776;2023-07-09T06:17:56;29.65;29.40
75799;DHT22;70933;44.692;37.776;2023-07-09T06:18:58;29.66;29.39
75799;DHT22;70933;44.692;37.776;2023-07-09T06:20:00;29.67;29.28
75799;DHT22;70933;44.692;37.776;2023-07-09T06:21:02;29.66;29.22
75799;DHT22;70933;44.692;37.776;2023-07-09T06:22:04;29.66;29.18
75799;DHT22;70933;44.692;37.776;2023-07-09T06:23:06;29.66;29.20
75799;DHT22;70933;44.692;37.776;2023-07-09T06:24:09;29.65;29.20
75799;DHT22;70933;44.692;37.776;2023-07-09T06:25:12;29.65;29.22
75799;DHT22;70933;44.692;37.776;2023-07-09T06:26:13;29.66;29.20
75799;DHT22;70933;44.692;37.776;2023-07-09T06:27:15;29.67;29.26
75799;DHT22;70933;44.692;37.776;2023-07-09T06:28:19;29.66;29.22
75799;DHT22;70933;44.692;37.776;2023-07-09T06:29:21;29.66;29.28
75799;DHT22;70933;44.692;37.776;2023-07-09T06:30:22;29.66;29.27
75799;DHT22;70933;44.692;37.776;2023-07-09T06:31:24;29.66;29.48
75799;DHT22;70933;44.692;37.776;2023-07-09T06:32:26;29.65;29.51
75799;DHT22;70933;44.692;37.776;2023-07-09T06:33:28;29.66;29.45
75799;DHT22;70933;44.692;37.776;2023-07-09T06:34:30;29.65;29.46
75799;DHT22;70933;44.692;37.776;2023-07-09T06:35:32;29.65;29.55